createdAt,value
2019-02-02T00:00:34.781Z,19.13
2019-02-02T00:01:36.017Z,19.10
2019-02-02T00:02:37.144Z,19.07
2019-02-02T00:03:38.366Z,19.04
2019-02-02T00:04:39.497Z,19.01
2019-02-02T00:05:40.620Z,19.01
2019-02-02T00:06:41.764Z,18.97
2019-02-02T00:07:42.883Z,18.94
2019-02-02T00:08:44.210Z,18.92
2019-02-02T00:09:45.331Z,18.89
2019-02-02T00:10:46.488Z,18.87
2019-02-02T00:11:47.613Z,18.84
2019-02-02T00:12:48.738Z,18.82
2019-02-02T00:13:49.845Z,18.80
2019-02-02T00:14:50.972Z,18.78
2019-02-02T00:15:52.093Z,18.77
2019-02-02T00:16:53.336Z,18.73
2019-02-02T00:17:54.961Z,18.71
2019-02-02T00:18:56.081Z,18.69
2019-02-02T00:19:57.207Z,18.68
2019-02-02T00:20:58.321Z,18.65
2019-02-02T00:21:59.490Z,18.64
2019-02-02T00:23:00.613Z,18.62
2019-02-02T00:24:01.844Z,18.59
2019-02-02T00:25:04.668Z,18.56
2019-02-02T00:26:05.894Z,18.55
2019-02-02T00:27:07.043Z,18.51
2019-02-02T00:28:08.157Z,18.49
2019-02-02T00:29:09.580Z,18.47
2019-02-02T00:30:15.348Z,18.45
2019-02-02T00:31:16.472Z,18.43
2019-02-02T00:32:17.613Z,18.39
2019-02-02T00:33:18.737Z,18.38
2019-02-02T00:34:19.859Z,18.37
2019-02-02T00:35:20.980Z,18.34
2019-02-02T00:36:22.103Z,18.33
2019-02-02T00:37:23.248Z,18.30
2019-02-02T00:38:24.380Z,18.27
2019-02-02T00:39:25.506Z,18.26
2019-02-02T00:40:26.624Z,18.24
2019-02-02T00:41:27.756Z,18.21
2019-02-02T00:42:28.992Z,18.19
2019-02-02T00:43:30.106Z,18.18
2019-02-02T00:44:31.428Z,18.16
2019-02-02T00:45:32.557Z,18.13
2019-02-02T00:46:33.685Z,18.13
2019-02-02T00:47:34.908Z,18.11
2019-02-02T00:48:36.136Z,18.09
2019-02-02T00:49:37.256Z,18.08
2019-02-02T00:50:38.387Z,18.06
2019-02-02T00:51:39.511Z,18.05
2019-02-02T00:52:40.767Z,18.04
2019-02-02T00:53:41.888Z,18.01
2019-02-02T00:54:43.000Z,18.01
2019-02-02T00:55:44.276Z,17.98
2019-02-02T00:56:45.404Z,17.97
2019-02-02T00:57:53.521Z,17.96
2019-02-02T00:58:49.760Z,17.93
2019-02-02T00:59:50.872Z,17.92
2019-02-02T01:00:52.083Z,17.90
2019-02-02T01:01:53.192Z,17.89
2019-02-02T01:02:54.752Z,17.86
2019-02-02T01:03:55.873Z,17.84
2019-02-02T01:04:56.984Z,17.83
2019-02-02T01:05:58.110Z,17.82
2019-02-02T01:06:59.230Z,17.80
2019-02-02T01:08:00.384Z,17.79
2019-02-02T01:09:03.412Z,17.77
2019-02-02T01:10:13.728Z,17.76
2019-02-02T01:11:14.884Z,17.74
2019-02-02T01:12:16.110Z,17.72
2019-02-02T01:13:17.239Z,17.71
2019-02-02T01:14:18.357Z,17.69
2019-02-02T01:15:19.472Z,17.68
2019-02-02T01:16:20.695Z,17.66
2019-02-02T01:17:21.929Z,17.65
2019-02-02T01:18:23.090Z,17.65
2019-02-02T01:19:24.308Z,17.64
2019-02-02T01:20:25.433Z,17.62
2019-02-02T01:21:26.559Z,17.60
2019-02-02T01:22:27.676Z,17.59
2019-02-02T01:23:28.816Z,17.57
2019-02-02T01:24:30.066Z,17.56
2019-02-02T01:25:31.364Z,17.54
2019-02-02T01:26:32.485Z,17.52
2019-02-02T01:27:33.608Z,17.50
2019-02-02T01:28:34.863Z,17.49
2019-02-02T01:29:35.984Z,17.47
2019-02-02T01:30:37.206Z,17.46
2019-02-02T01:31:38.435Z,17.44
2019-02-02T01:32:39.566Z,17.44
2019-02-02T01:33:40.716Z,17.42
2019-02-02T01:34:41.831Z,17.41
2019-02-02T01:35:42.951Z,17.41
2019-02-02T01:36:44.079Z,17.41
2019-02-02T01:37:45.202Z,17.39
2019-02-02T01:38:46.345Z,17.40
2019-02-02T01:39:47.456Z,17.38
2019-02-02T01:40:48.666Z,17.37
2019-02-02T01:41:49.784Z,17.38
2019-02-02T01:42:51.003Z,17.36
2019-02-02T01:43:52.137Z,17.35
2019-02-02T01:44:53.254Z,17.36
2019-02-02T01:45:54.376Z,17.35
2019-02-02T01:46:55.496Z,17.33
2019-02-02T01:47:56.817Z,17.34
2019-02-02T01:48:57.953Z,17.32
2019-02-02T01:49:59.083Z,17.30
2019-02-02T01:51:00.214Z,17.31
2019-02-02T01:52:01.333Z,17.30
2019-02-02T01:53:02.557Z,17.30
2019-02-02T01:54:03.724Z,17.29
2019-02-02T01:55:07.050Z,17.28
2019-02-02T01:56:08.264Z,17.28
2019-02-02T01:57:09.428Z,17.27
2019-02-02T01:58:16.863Z,17.26
2019-02-02T01:59:13.553Z,17.25
2019-02-02T02:00:17.880Z,17.25
2019-02-02T02:01:19.003Z,17.23
2019-02-02T02:02:20.124Z,17.22
2019-02-02T02:03:21.556Z,17.21
2019-02-02T02:04:22.801Z,17.21
2019-02-02T02:05:23.920Z,17.20
2019-02-02T02:06:25.047Z,17.20
2019-02-02T02:07:26.169Z,17.19
2019-02-02T02:08:27.294Z,17.18
2019-02-02T02:09:28.429Z,17.18
2019-02-02T02:10:29.559Z,17.16
2019-02-02T02:11:30.721Z,17.16
2019-02-02T02:12:31.835Z,17.16
2019-02-02T02:13:32.956Z,17.15
2019-02-02T02:14:34.086Z,17.14
2019-02-02T02:15:35.212Z,17.13
2019-02-02T02:16:36.447Z,17.12
2019-02-02T02:17:37.564Z,17.11
2019-02-02T02:18:38.685Z,17.10
2019-02-02T02:19:39.849Z,17.10
2019-02-02T02:20:40.977Z,17.10
2019-02-02T02:21:42.103Z,17.09
2019-02-02T02:22:43.726Z,17.09
2019-02-02T02:23:44.857Z,17.10
2019-02-02T02:24:45.996Z,17.08
2019-02-02T02:25:47.120Z,17.09
2019-02-02T02:26:48.235Z,17.08
2019-02-02T02:27:49.355Z,17.08
2019-02-02T02:28:50.479Z,17.08
2019-02-02T02:29:51.617Z,17.08
2019-02-02T02:30:52.748Z,17.06
2019-02-02T02:31:53.853Z,17.07
2019-02-02T02:32:54.963Z,17.05
2019-02-02T02:33:56.099Z,17.05
2019-02-02T02:34:57.249Z,17.04
2019-02-02T02:35:58.384Z,17.03
2019-02-02T02:36:59.520Z,17.03
2019-02-02T02:38:00.648Z,17.02
2019-02-02T02:39:01.874Z,17.00
2019-02-02T02:40:08.881Z,17.00
2019-02-02T02:41:10.007Z,16.99
2019-02-02T02:42:11.124Z,16.99
2019-02-02T02:43:12.233Z,16.99
2019-02-02T02:44:13.353Z,16.98
2019-02-02T02:45:14.702Z,16.98
2019-02-02T02:46:15.832Z,16.98
2019-02-02T02:47:16.950Z,16.97
2019-02-02T02:48:18.064Z,16.97
2019-02-02T02:49:19.188Z,16.97
2019-02-02T02:50:21.018Z,16.96
2019-02-02T02:51:22.140Z,16.95
2019-02-02T02:52:23.255Z,16.95
2019-02-02T02:53:24.481Z,16.94
2019-02-02T02:54:25.615Z,16.94
2019-02-02T02:55:26.781Z,16.94
2019-02-02T02:56:27.917Z,16.94
2019-02-02T02:57:29.037Z,16.93
2019-02-02T02:58:41.105Z,16.93
2019-02-02T02:59:33.191Z,16.93
2019-02-02T03:00:34.457Z,16.92
2019-02-02T03:01:35.585Z,16.90
2019-02-02T03:02:36.704Z,16.91
2019-02-02T03:03:37.828Z,16.90
2019-02-02T03:04:38.940Z,16.88
2019-02-02T03:05:40.079Z,16.89
2019-02-02T03:06:41.200Z,16.89
2019-02-02T03:07:42.409Z,16.87
2019-02-02T03:08:43.535Z,16.87
2019-02-02T03:09:44.661Z,16.87
2019-02-02T03:10:45.797Z,16.86
2019-02-02T03:11:46.959Z,16.86
2019-02-02T03:12:48.286Z,16.86
2019-02-02T03:13:49.407Z,16.85
2019-02-02T03:14:50.517Z,16.83
2019-02-02T03:15:51.663Z,16.84
2019-02-02T03:16:52.886Z,16.85
2019-02-02T03:17:54.111Z,16.83
2019-02-02T03:18:55.237Z,16.84
2019-02-02T03:19:56.352Z,16.83
2019-02-02T03:20:57.606Z,16.83
2019-02-02T03:21:58.737Z,16.82
2019-02-02T03:22:59.854Z,16.82
2019-02-02T03:24:00.971Z,16.81
2019-02-02T03:25:03.192Z,16.81
2019-02-02T03:26:04.325Z,16.79
2019-02-02T03:27:05.460Z,16.80
2019-02-02T03:28:06.572Z,16.80
2019-02-02T03:29:07.701Z,16.79
2019-02-02T03:30:17.331Z,16.78
2019-02-02T03:31:18.565Z,16.78
2019-02-02T03:32:19.674Z,16.78
2019-02-02T03:33:20.802Z,16.77
2019-02-02T03:34:21.928Z,16.77
2019-02-02T03:35:23.049Z,16.77
2019-02-02T03:36:24.286Z,16.76
2019-02-02T03:37:25.446Z,16.76
2019-02-02T03:38:26.579Z,16.76
2019-02-02T03:39:27.692Z,16.77
2019-02-02T03:40:28.816Z,16.76
2019-02-02T03:41:29.949Z,16.76
2019-02-02T03:42:31.075Z,16.75
2019-02-02T03:43:32.309Z,16.76
2019-02-02T03:44:33.436Z,16.75
2019-02-02T03:45:34.560Z,16.75
2019-02-02T03:46:35.721Z,16.75
2019-02-02T03:47:36.848Z,16.75
2019-02-02T03:48:37.978Z,16.75
2019-02-02T03:49:39.107Z,16.74
2019-02-02T03:50:40.224Z,16.74
2019-02-02T03:51:41.385Z,16.73
2019-02-02T03:52:42.602Z,16.75
2019-02-02T03:53:43.716Z,16.74
2019-02-02T03:54:44.844Z,16.73
2019-02-02T03:55:46.056Z,16.72
2019-02-02T03:56:47.187Z,16.72
2019-02-02T03:57:48.309Z,16.72
2019-02-02T03:58:49.430Z,16.73
2019-02-02T03:59:50.557Z,16.71
2019-02-02T04:00:51.690Z,16.71
2019-02-02T04:01:52.844Z,16.70
2019-02-02T04:02:54.069Z,16.69
2019-02-02T04:03:55.499Z,16.70
2019-02-02T04:04:56.633Z,16.70
2019-02-02T04:05:57.865Z,16.69
2019-02-02T04:06:59.035Z,16.70
2019-02-02T04:08:00.164Z,16.70
2019-02-02T04:09:01.288Z,16.69
2019-02-02T04:10:05.615Z,16.68
2019-02-02T04:11:06.734Z,16.68
2019-02-02T04:12:07.900Z,16.68
2019-02-02T04:13:09.028Z,16.69
2019-02-02T04:14:10.250Z,16.63
2019-02-02T04:15:13.891Z,16.67
2019-02-02T04:16:15.002Z,16.67
2019-02-02T04:17:16.122Z,16.67
2019-02-02T04:18:17.244Z,16.67
2019-02-02T04:19:18.373Z,16.68
2019-02-02T04:20:23.258Z,16.66
2019-02-02T04:21:24.491Z,16.67
2019-02-02T04:22:25.629Z,16.65
2019-02-02T04:23:26.753Z,16.66
2019-02-02T04:24:27.878Z,16.65
2019-02-02T04:25:29.003Z,16.64
2019-02-02T04:26:30.232Z,16.65
2019-02-02T04:27:31.375Z,16.63
2019-02-02T04:28:32.501Z,16.63
2019-02-02T04:29:33.628Z,16.62
2019-02-02T04:30:34.749Z,16.62
2019-02-02T04:31:35.873Z,16.61
2019-02-02T04:32:37.020Z,16.62
2019-02-02T04:33:38.136Z,16.63
2019-02-02T04:34:39.260Z,16.61
2019-02-02T04:35:40.385Z,16.63
2019-02-02T04:36:41.512Z,16.62
2019-02-02T04:37:42.746Z,16.63
2019-02-02T04:38:43.873Z,16.63
2019-02-02T04:39:44.996Z,16.63
2019-02-02T04:40:46.128Z,16.62
2019-02-02T04:41:47.245Z,16.62
2019-02-02T04:42:48.407Z,16.62
2019-02-02T04:43:49.529Z,16.61
2019-02-02T04:44:50.658Z,16.61
2019-02-02T04:45:51.880Z,16.61
2019-02-02T04:46:53.115Z,16.60
2019-02-02T04:47:54.285Z,16.61
2019-02-02T04:48:55.413Z,16.60
2019-02-02T04:49:56.639Z,16.60
2019-02-02T04:50:57.773Z,16.61
2019-02-02T04:51:58.900Z,16.60
2019-02-02T04:53:00.134Z,16.60
2019-02-02T04:54:01.367Z,16.60
2019-02-02T04:55:03.591Z,16.59
2019-02-02T04:56:04.819Z,16.57
2019-02-02T04:57:05.945Z,16.57
2019-02-02T04:58:07.080Z,16.57
2019-02-02T04:59:08.205Z,16.56
2019-02-02T05:00:15.956Z,16.55
2019-02-02T05:01:17.083Z,16.54
2019-02-02T05:02:18.320Z,16.52
2019-02-02T05:03:19.479Z,16.52
2019-02-02T05:04:20.602Z,16.50
2019-02-02T05:05:21.827Z,16.49
2019-02-02T05:06:22.950Z,16.48
2019-02-02T05:07:24.077Z,16.48
2019-02-02T05:08:25.236Z,16.47
2019-02-02T05:09:26.366Z,16.46
2019-02-02T05:10:27.481Z,16.45
2019-02-02T05:11:28.594Z,16.45
2019-02-02T05:12:29.737Z,16.44
2019-02-02T05:13:30.878Z,16.44
2019-02-02T05:14:32.000Z,16.43
2019-02-02T05:15:33.129Z,16.43
2019-02-02T05:16:34.345Z,16.43
2019-02-02T05:17:35.470Z,16.42
2019-02-02T05:18:36.604Z,16.42
2019-02-02T05:19:37.735Z,16.41
2019-02-02T05:20:38.861Z,16.42
2019-02-02T05:21:40.085Z,16.42
2019-02-02T05:22:41.308Z,16.42
2019-02-02T05:23:42.445Z,16.42
2019-02-02T05:24:43.570Z,16.42
2019-02-02T05:25:44.701Z,16.42
2019-02-02T05:26:45.812Z,16.43
2019-02-02T05:27:46.934Z,16.44
2019-02-02T05:28:50.407Z,16.43
2019-02-02T05:29:51.536Z,16.43
2019-02-02T05:30:52.760Z,16.44
2019-02-02T05:31:53.887Z,16.44
2019-02-02T05:32:55.012Z,16.45
2019-02-02T05:33:56.177Z,16.44
2019-02-02T05:34:57.293Z,16.44
2019-02-02T05:35:58.412Z,16.45
2019-02-02T05:36:59.605Z,16.44
2019-02-02T05:38:00.728Z,16.45
2019-02-02T05:39:03.958Z,16.45
2019-02-02T05:40:08.685Z,16.45
2019-02-02T05:41:09.905Z,16.45
2019-02-02T05:42:11.044Z,16.44
2019-02-02T05:43:12.163Z,16.44
2019-02-02T05:44:13.494Z,16.44
2019-02-02T05:45:20.449Z,16.44
2019-02-02T05:46:21.681Z,16.43
2019-02-02T05:47:22.809Z,16.46
2019-02-02T05:48:23.939Z,16.45
2019-02-02T05:49:25.087Z,16.45
2019-02-02T05:50:26.203Z,16.44
2019-02-02T05:51:27.334Z,16.45
2019-02-02T05:52:28.465Z,16.43
2019-02-02T05:53:29.588Z,16.43
2019-02-02T05:54:30.724Z,16.43
2019-02-02T05:55:31.949Z,16.43
2019-02-02T05:56:33.069Z,16.44
2019-02-02T05:57:34.184Z,16.43
2019-02-02T05:58:35.401Z,16.43
2019-02-02T05:59:37.036Z,16.44
2019-02-02T06:00:42.883Z,16.45
2019-02-02T06:01:44.017Z,16.44
2019-02-02T06:02:45.142Z,16.44
2019-02-02T06:03:46.369Z,16.44
2019-02-02T06:04:47.678Z,16.44
2019-02-02T06:05:48.894Z,16.45
2019-02-02T06:06:50.125Z,16.44
2019-02-02T06:07:51.254Z,16.44
2019-02-02T06:08:52.382Z,16.44
2019-02-02T06:09:53.549Z,16.46
2019-02-02T06:10:54.679Z,16.45
2019-02-02T06:11:55.802Z,16.46
2019-02-02T06:12:56.973Z,16.44
2019-02-02T06:13:58.110Z,16.44
2019-02-02T06:14:59.250Z,16.44
2019-02-02T06:16:00.375Z,16.44
2019-02-02T06:17:01.498Z,16.44
2019-02-02T06:18:03.129Z,16.44
2019-02-02T06:19:04.249Z,16.42
2019-02-02T06:20:08.794Z,16.43
2019-02-02T06:21:09.907Z,16.42
2019-02-02T06:22:11.033Z,16.43
2019-02-02T06:23:12.162Z,16.42
2019-02-02T06:24:13.288Z,16.43
2019-02-02T06:25:14.831Z,16.42
2019-02-02T06:26:15.951Z,16.42
2019-02-02T06:27:17.179Z,16.42
2019-02-02T06:28:18.298Z,16.43
2019-02-02T06:29:19.583Z,16.42
2019-02-02T06:30:23.793Z,16.42
2019-02-02T06:31:25.026Z,16.42
2019-02-02T06:32:26.154Z,16.42
2019-02-02T06:33:27.384Z,16.42
2019-02-02T06:34:28.510Z,16.42
2019-02-02T06:35:29.677Z,16.42
2019-02-02T06:36:30.807Z,16.42
2019-02-02T06:37:31.937Z,16.42
2019-02-02T06:38:33.071Z,16.42
2019-02-02T06:39:34.198Z,16.41
2019-02-02T06:40:35.483Z,16.41
2019-02-02T06:41:36.589Z,16.41
2019-02-02T06:42:37.813Z,16.41
2019-02-02T06:43:38.937Z,16.41
2019-02-02T06:44:40.066Z,16.40
2019-02-02T06:45:41.307Z,16.40
2019-02-02T06:46:43.668Z,16.39
2019-02-02T06:47:45.151Z,16.39
2019-02-02T06:48:46.278Z,16.39
2019-02-02T06:49:47.410Z,16.39
2019-02-02T06:50:48.551Z,16.38
2019-02-02T06:51:49.677Z,16.39
2019-02-02T06:52:50.794Z,16.39
2019-02-02T06:53:51.911Z,16.38
2019-02-02T06:54:53.032Z,16.39
2019-02-02T06:55:54.261Z,16.39
2019-02-02T06:56:55.486Z,16.39
2019-02-02T06:57:56.614Z,16.39
2019-02-02T06:58:57.744Z,16.39
2019-02-02T06:59:58.984Z,16.40
2019-02-02T07:01:00.118Z,16.39
2019-02-02T07:02:01.346Z,16.40
2019-02-02T07:03:02.474Z,16.40
2019-02-02T07:04:03.758Z,16.39
2019-02-02T07:05:05.411Z,16.40
2019-02-02T07:06:06.544Z,16.40
2019-02-02T07:07:07.667Z,16.39
2019-02-02T07:08:08.794Z,16.39
2019-02-02T07:09:09.922Z,16.40
2019-02-02T07:10:17.570Z,16.41
2019-02-02T07:11:18.725Z,16.42
2019-02-02T07:12:19.957Z,16.45
2019-02-02T07:13:21.123Z,16.47
2019-02-02T07:14:22.248Z,16.51
2019-02-02T07:15:28.039Z,16.53
2019-02-02T07:16:29.174Z,16.57
2019-02-02T07:17:30.291Z,16.61
2019-02-02T07:18:31.521Z,16.64
2019-02-02T07:19:32.740Z,16.69
2019-02-02T07:20:33.871Z,16.73
2019-02-02T07:21:34.980Z,16.78
2019-02-02T07:22:36.107Z,16.81
2019-02-02T07:23:37.221Z,16.87
2019-02-02T07:24:38.351Z,16.92
2019-02-02T07:25:39.464Z,16.96
2019-02-02T07:26:40.601Z,17.01
2019-02-02T07:27:41.822Z,17.05
2019-02-02T07:28:42.946Z,17.11
2019-02-02T07:29:44.181Z,17.16
2019-02-02T07:30:45.305Z,17.23
2019-02-02T07:31:46.448Z,17.27
2019-02-02T07:32:47.564Z,17.33
2019-02-02T07:33:48.700Z,17.39
2019-02-02T07:34:49.817Z,17.45
2019-02-02T07:35:53.883Z,17.51
2019-02-02T07:36:54.089Z,17.58
2019-02-02T07:37:55.310Z,17.64
2019-02-02T07:38:56.438Z,17.70
2019-02-02T07:39:57.565Z,17.74
2019-02-02T07:40:58.799Z,17.79
2019-02-02T07:41:59.937Z,17.84
2019-02-02T07:43:01.046Z,17.90
2019-02-02T07:44:02.372Z,17.95
2019-02-02T07:45:09.781Z,18.00
2019-02-02T07:46:14.911Z,18.05
2019-02-02T07:47:14.053Z,18.09
2019-02-02T07:48:15.164Z,18.14
2019-02-02T07:49:16.400Z,18.18
2019-02-02T07:50:17.524Z,18.20
2019-02-02T07:51:18.761Z,18.24
2019-02-02T07:52:21.143Z,18.26
2019-02-02T07:53:22.465Z,18.29
2019-02-02T07:54:23.588Z,18.31
2019-02-02T07:55:24.701Z,18.34
2019-02-02T07:56:25.830Z,18.35
2019-02-02T07:57:26.989Z,18.37
2019-02-02T07:58:28.122Z,18.40
2019-02-02T07:59:29.252Z,18.42
2019-02-02T08:00:40.690Z,18.44
2019-02-02T08:01:38.173Z,18.44
2019-02-02T08:02:39.294Z,18.46
2019-02-02T08:03:40.551Z,18.46
2019-02-02T08:04:41.678Z,18.47
2019-02-02T08:05:42.801Z,18.49
2019-02-02T08:06:46.205Z,18.49
2019-02-02T08:07:46.992Z,18.50
2019-02-02T08:08:48.124Z,18.52
2019-02-02T08:09:49.255Z,18.52
2019-02-02T08:10:50.378Z,18.55
2019-02-02T08:11:51.501Z,18.57
2019-02-02T08:12:52.640Z,18.57
2019-02-02T08:13:53.887Z,18.58
2019-02-02T08:14:55.005Z,18.60
2019-02-02T08:15:56.130Z,18.61
2019-02-02T08:16:57.258Z,18.63
2019-02-02T08:17:58.381Z,18.63
2019-02-02T08:18:59.510Z,18.64
2019-02-02T08:20:00.631Z,18.66
2019-02-02T08:21:01.754Z,18.66
2019-02-02T08:22:03.183Z,18.69
2019-02-02T08:23:04.346Z,18.70
2019-02-02T08:24:05.474Z,18.72
2019-02-02T08:25:09.486Z,18.72
2019-02-02T08:26:10.709Z,18.74
2019-02-02T08:27:11.827Z,18.73
2019-02-02T08:28:12.986Z,18.75
2019-02-02T08:29:14.106Z,18.75
2019-02-02T08:30:17.333Z,18.75
2019-02-02T08:31:18.465Z,18.77
2019-02-02T08:32:19.597Z,18.77
2019-02-02T08:33:20.743Z,18.78
2019-02-02T08:34:21.857Z,18.79
2019-02-02T08:35:23.177Z,18.79
2019-02-02T08:36:24.394Z,18.80
2019-02-02T08:37:25.625Z,18.80
2019-02-02T08:38:26.766Z,18.80
2019-02-02T08:39:29.521Z,18.80
2019-02-02T08:40:30.938Z,18.82
2019-02-02T08:41:32.162Z,18.83
2019-02-02T08:42:33.280Z,18.80
2019-02-02T08:43:34.587Z,18.82
2019-02-02T08:44:35.709Z,18.81
2019-02-02T08:45:36.941Z,18.82
2019-02-02T08:46:38.064Z,18.81
2019-02-02T08:47:39.285Z,18.81
2019-02-02T08:48:40.423Z,18.82
2019-02-02T08:49:41.553Z,18.81
2019-02-02T08:50:42.783Z,18.81
2019-02-02T08:51:43.915Z,18.82
2019-02-02T08:52:45.262Z,18.83
2019-02-02T08:53:46.457Z,18.82
2019-02-02T08:54:47.635Z,18.81
2019-02-02T08:55:51.897Z,18.80
2019-02-02T08:56:52.009Z,18.81
2019-02-02T08:57:53.251Z,18.82
2019-02-02T08:58:54.480Z,18.79
2019-02-02T08:59:55.605Z,18.79
2019-02-02T09:01:03.739Z,18.79
2019-02-02T09:01:59.870Z,18.78
2019-02-02T09:03:01.001Z,18.78
2019-02-02T09:04:02.233Z,18.77
2019-02-02T09:05:05.460Z,18.78
2019-02-02T09:06:06.679Z,18.77
2019-02-02T09:07:07.909Z,18.77
2019-02-02T09:08:09.139Z,18.76
2019-02-02T09:09:10.663Z,18.75
2019-02-02T09:10:14.078Z,18.74
2019-02-02T09:11:15.304Z,18.74
2019-02-02T09:12:16.493Z,18.73
2019-02-02T09:13:17.641Z,18.74
2019-02-02T09:14:18.945Z,18.73
2019-02-02T09:15:20.053Z,18.72
2019-02-02T09:16:21.280Z,18.72
2019-02-02T09:17:22.532Z,18.71
2019-02-02T09:18:23.640Z,18.71
2019-02-02T09:19:24.778Z,18.70
2019-02-02T09:20:25.901Z,18.71
2019-02-02T09:21:27.129Z,18.70
2019-02-02T09:22:28.254Z,18.70
2019-02-02T09:23:29.376Z,18.69
2019-02-02T09:24:30.530Z,18.69
2019-02-02T09:25:31.657Z,18.68
2019-02-02T09:26:32.872Z,18.69
2019-02-02T09:27:34.002Z,18.68
2019-02-02T09:28:35.130Z,18.68
2019-02-02T09:29:36.270Z,18.68
2019-02-02T09:30:37.485Z,18.67
2019-02-02T09:31:38.702Z,18.66
2019-02-02T09:32:39.824Z,18.66
2019-02-02T09:33:40.975Z,18.66
2019-02-02T09:34:42.102Z,18.65
2019-02-02T09:35:43.270Z,18.64
2019-02-02T09:36:44.365Z,18.64
2019-02-02T09:37:45.594Z,18.63
2019-02-02T09:38:46.728Z,18.62
2019-02-02T09:39:48.105Z,18.62
2019-02-02T09:40:49.409Z,18.61
2019-02-02T09:41:50.538Z,18.62
2019-02-02T09:42:51.654Z,18.63
2019-02-02T09:43:52.786Z,18.62
2019-02-02T09:44:54.054Z,18.62
2019-02-02T09:45:55.191Z,18.62
2019-02-02T09:46:56.328Z,18.62
2019-02-02T09:47:57.451Z,18.63
2019-02-02T09:48:58.585Z,18.63
2019-02-02T09:49:59.833Z,18.63
2019-02-02T09:51:00.949Z,18.64
2019-02-02T09:52:02.161Z,18.64
2019-02-02T09:53:03.574Z,18.63
2019-02-02T09:54:04.693Z,18.64
2019-02-02T09:55:12.047Z,18.63
2019-02-02T09:56:13.180Z,18.63
2019-02-02T09:57:17.066Z,18.62
2019-02-02T09:58:17.330Z,18.62
2019-02-02T09:59:18.449Z,18.62
2019-02-02T10:00:22.853Z,18.60
2019-02-02T10:01:27.749Z,18.60
2019-02-02T10:02:27.259Z,18.60
2019-02-02T10:03:28.425Z,18.59
2019-02-02T10:04:29.659Z,18.59
2019-02-02T10:05:30.895Z,18.58
2019-02-02T10:06:32.026Z,18.59
2019-02-02T10:07:33.154Z,18.58
2019-02-02T10:08:34.282Z,18.58
2019-02-02T10:09:35.406Z,18.58
2019-02-02T10:10:36.545Z,18.59
2019-02-02T10:11:38.017Z,18.58
2019-02-02T10:12:39.131Z,18.58
2019-02-02T10:13:40.253Z,18.58
2019-02-02T10:14:41.380Z,18.58
2019-02-02T10:15:42.519Z,18.58
2019-02-02T10:16:43.653Z,18.57
2019-02-02T10:17:44.806Z,18.58
2019-02-02T10:18:45.934Z,18.57
2019-02-02T10:19:47.064Z,18.57
2019-02-02T10:20:48.202Z,18.57
2019-02-02T10:21:49.815Z,18.56
2019-02-02T10:22:51.358Z,18.55
2019-02-02T10:23:52.618Z,18.54
2019-02-02T10:24:53.926Z,18.54
2019-02-02T10:25:55.173Z,18.54
2019-02-02T10:26:56.306Z,18.53
2019-02-02T10:27:57.618Z,18.52
2019-02-02T10:28:58.745Z,18.51
2019-02-02T10:29:59.869Z,18.52
2019-02-02T10:31:01.115Z,18.51
2019-02-02T10:32:02.337Z,18.50
2019-02-02T10:33:03.747Z,18.51
2019-02-02T10:34:04.885Z,18.50
2019-02-02T10:35:06.007Z,18.50
2019-02-02T10:36:07.149Z,18.49
2019-02-02T10:37:08.370Z,18.47
2019-02-02T10:38:09.626Z,18.48
2019-02-02T10:39:10.826Z,18.48
2019-02-02T10:40:13.553Z,18.47
2019-02-02T10:41:14.798Z,18.47
2019-02-02T10:42:16.037Z,18.48
2019-02-02T10:43:17.164Z,18.49
2019-02-02T10:44:18.277Z,18.49
2019-02-02T10:45:19.799Z,18.49
2019-02-02T10:46:20.953Z,18.49
2019-02-02T10:47:22.065Z,18.50
2019-02-02T10:48:23.191Z,18.50
2019-02-02T10:49:24.422Z,18.50
2019-02-02T10:50:26.049Z,18.50
2019-02-02T10:51:27.289Z,18.50
2019-02-02T10:52:28.415Z,18.51
2019-02-02T10:53:29.544Z,18.51
2019-02-02T10:54:30.679Z,18.51
2019-02-02T10:55:31.801Z,18.50
2019-02-02T10:56:33.041Z,18.50
2019-02-02T10:57:34.272Z,18.49
2019-02-02T10:58:35.488Z,18.50
2019-02-02T10:59:36.619Z,18.51
2019-02-02T11:00:38.342Z,18.49
2019-02-02T11:01:50.520Z,18.49
2019-02-02T11:02:42.631Z,18.50
2019-02-02T11:03:43.862Z,18.50
2019-02-02T11:04:45.006Z,18.50
2019-02-02T11:05:46.237Z,18.48
2019-02-02T11:06:47.624Z,18.49
2019-02-02T11:07:49.005Z,18.48
2019-02-02T11:08:50.337Z,18.48
2019-02-02T11:09:51.659Z,18.46
2019-02-02T11:10:52.888Z,18.47
2019-02-02T11:11:54.262Z,18.47
2019-02-02T11:12:56.178Z,18.47
2019-02-02T11:13:57.614Z,18.46
2019-02-02T11:14:58.848Z,18.46
2019-02-02T11:15:59.961Z,18.45
2019-02-02T11:17:01.153Z,18.45
2019-02-02T11:18:03.095Z,18.44
2019-02-02T11:19:04.370Z,18.44
2019-02-02T11:20:09.242Z,18.46
2019-02-02T11:21:10.392Z,18.46
2019-02-02T11:22:11.529Z,18.46
2019-02-02T11:23:12.738Z,18.47
2019-02-02T11:24:13.864Z,18.46
2019-02-02T11:25:14.984Z,18.47
2019-02-02T11:26:16.277Z,18.47
2019-02-02T11:27:17.568Z,18.47
2019-02-02T11:28:18.951Z,18.48
2019-02-02T11:29:20.279Z,18.48
2019-02-02T11:30:22.317Z,18.48
2019-02-02T11:31:23.529Z,18.49
2019-02-02T11:32:24.695Z,18.50
2019-02-02T11:33:25.805Z,18.50
2019-02-02T11:34:26.935Z,18.48
2019-02-02T11:35:28.053Z,18.50
2019-02-02T11:36:29.177Z,18.50
2019-02-02T11:37:30.321Z,18.50
2019-02-02T11:38:31.429Z,18.49
2019-02-02T11:39:32.546Z,18.50
2019-02-02T11:40:34.417Z,18.49
2019-02-02T11:41:35.704Z,18.49
2019-02-02T11:42:36.835Z,18.51
2019-02-02T11:43:37.962Z,18.49
2019-02-02T11:44:39.264Z,18.49
2019-02-02T11:45:40.387Z,18.50
2019-02-02T11:46:41.514Z,18.51
2019-02-02T11:47:42.763Z,18.50
2019-02-02T11:48:43.894Z,18.49
2019-02-02T11:49:45.020Z,18.50
2019-02-02T11:50:46.143Z,18.49
2019-02-02T11:51:47.253Z,18.49
2019-02-02T11:52:48.595Z,18.49
2019-02-02T11:53:49.833Z,18.48
2019-02-02T11:54:50.946Z,18.48
2019-02-02T11:55:52.073Z,18.49
2019-02-02T11:56:53.197Z,18.48
2019-02-02T11:57:54.660Z,18.49
2019-02-02T11:58:55.768Z,18.48
2019-02-02T11:59:57.001Z,18.48
2019-02-02T12:00:58.221Z,18.49
2019-02-02T12:01:59.351Z,18.49
2019-02-02T12:03:00.490Z,18.49
2019-02-02T12:04:01.611Z,18.48
2019-02-02T12:05:04.736Z,18.48
2019-02-02T12:06:05.859Z,18.49
2019-02-02T12:07:06.985Z,18.49
2019-02-02T12:08:08.222Z,18.48
2019-02-02T12:09:09.346Z,18.49
2019-02-02T12:10:13.975Z,18.48
2019-02-02T12:11:15.097Z,18.48
2019-02-02T12:12:16.237Z,18.47
2019-02-02T12:13:17.396Z,18.47
2019-02-02T12:14:18.522Z,18.48
2019-02-02T12:15:19.772Z,18.46
2019-02-02T12:16:20.878Z,18.44
2019-02-02T12:17:21.992Z,18.44
2019-02-02T12:18:23.164Z,18.44
2019-02-02T12:19:24.350Z,18.44
2019-02-02T12:20:25.471Z,18.44
2019-02-02T12:21:26.585Z,18.46
2019-02-02T12:22:27.716Z,18.45
2019-02-02T12:23:28.848Z,18.46
2019-02-02T12:24:29.973Z,18.46
2019-02-02T12:25:31.097Z,18.48
2019-02-02T12:26:32.219Z,18.48
2019-02-02T12:27:33.441Z,18.48
2019-02-02T12:28:34.585Z,18.48
2019-02-02T12:29:35.702Z,18.49
2019-02-02T12:30:36.821Z,18.50
2019-02-02T12:31:37.949Z,18.49
2019-02-02T12:32:39.074Z,18.49
2019-02-02T12:33:40.209Z,18.50
2019-02-02T12:34:41.335Z,18.51
2019-02-02T12:35:42.472Z,18.52
2019-02-02T12:36:43.601Z,18.52
2019-02-02T12:37:44.722Z,18.54
2019-02-02T12:38:45.854Z,18.52
2019-02-02T12:39:46.971Z,18.53
2019-02-02T12:40:48.090Z,18.53
2019-02-02T12:41:49.213Z,18.54
2019-02-02T12:42:50.433Z,18.54
2019-02-02T12:43:51.590Z,18.54
2019-02-02T12:44:52.706Z,18.54
2019-02-02T12:45:53.832Z,18.54
2019-02-02T12:46:55.483Z,18.54
2019-02-02T12:47:56.741Z,18.52
2019-02-02T12:48:57.860Z,18.53
2019-02-02T12:49:59.019Z,18.53
2019-02-02T12:51:00.311Z,18.53
2019-02-02T12:52:01.436Z,18.53
2019-02-02T12:53:02.963Z,18.52
2019-02-02T12:54:04.225Z,18.54
2019-02-02T12:55:07.442Z,18.53
2019-02-02T12:56:08.571Z,18.53
2019-02-02T12:57:09.696Z,18.52
2019-02-02T12:58:10.825Z,18.52
2019-02-02T12:59:11.965Z,18.53
2019-02-02T13:00:17.997Z,18.52
2019-02-02T13:01:19.259Z,18.52
2019-02-02T13:02:20.482Z,18.52
2019-02-02T13:03:21.713Z,18.51
2019-02-02T13:04:22.973Z,18.51
2019-02-02T13:05:24.598Z,18.49
2019-02-02T13:06:25.735Z,18.50
2019-02-02T13:07:26.857Z,18.48
2019-02-02T13:08:27.985Z,18.49
2019-02-02T13:09:29.125Z,18.48
2019-02-02T13:10:30.453Z,18.49